Time;durP1;ratioP1;P1;durP2;ratioP2;P2;SDS_P1;SDS_P2;PMS_P1;PMS_P2;Temp;Humidity;BMP_temperature;BMP_pressure;BME280_temperature;BME280_humidity;BME280_pressure;Samples;Min_cycle;Max_cycle;Signal;HPM_P1;HPM_P2
2022/03/11 00:01:53;;;;;;;;;;;21.70;39.10;;;;;;5073074;28;20011;-44
2022/03/11 00:04:36;;;;;;;;;;;21.70;39.10;;;;;;5072906;28;19924;-43
2022/03/11 00:07:03;;;;;;;;;;;21.70;39.10;;;;;;5073781;28;19924;-49
2022/03/11 00:09:30;;;;;;;;;;;21.70;39.10;;;;;;5073748;28;19933;-44
2022/03/11 00:11:57;;;;;;;;;;;21.70;39.10;;;;;;5073740;28;20342;-51
2022/03/11 00:14:24;;;;;;;;;;;21.70;39.10;;;;;;5075099;28;19971;-46
2022/03/11 00:16:51;;;;;;;;;;;21.70;39.10;;;;;;5077021;28;19928;-46
2022/03/11 00:19:18;;;;;;;;;;;21.70;39.20;;;;;;5076925;28;19925;-44
2022/03/11 00:21:45;;;;;;;;;;;21.70;39.20;;;;;;5077020;28;19947;-43
2022/03/11 00:24:12;;;;;;;;;;;21.70;39.10;;;;;;5077345;28;19970;-46
2022/03/11 00:26:39;;;;;;;;;;;21.70;39.20;;;;;;5077599;28;19929;-43
2022/03/11 00:29:12;;;;;;;;;;;21.70;39.20;;;;;;5077458;28;19971;-44
2022/03/11 00:31:39;;;;;;;;;;;21.60;39.10;;;;;;5073439;28;19983;-43
2022/03/11 00:34:06;;;;;;;;;;;21.60;39.10;;;;;;5057384;28;19931;-47
2022/03/11 00:36:33;;;;;;;;;;;21.60;39.10;;;;;;5057447;28;20312;-46
2022/03/11 00:39:00;;;;;;;;;;;21.70;39.20;;;;;;5056974;28;19925;-45
2022/03/11 00:41:27;;;;;;;;;;;21.60;39.10;;;;;;5057304;28;19960;-43
2022/03/11 00:43:55;;;;;;;;;;;21.60;39.10;;;;;;5057248;28;19925;-43
2022/03/11 00:46:22;;;;;;;;;;;21.60;39.10;;;;;;5056593;28;20388;-44
2022/03/11 00:48:49;;;;;;;;;;;21.60;39.10;;;;;;5076653;28;20132;-42
2022/03/11 00:51:16;;;;;;;;;;;21.60;39.10;;;;;;5075854;28;20437;-42
2022/03/11 00:53:43;;;;;;;;;;;21.60;39.10;;;;;;5077061;28;19924;-43
2022/03/11 00:56:10;;;;;;;;;;;21.60;39.10;;;;;;5076991;28;19928;-43
2022/03/11 00:58:37;;;;;;;;;;;21.60;39.10;;;;;;5076432;28;20447;-42
2022/03/11 01:01:04;;;;;;;;;;;21.60;39.10;;;;;;5076607;28;19974;-44
2022/03/11 01:03:31;;;;;;;;;;;21.60;39.10;;;;;;5076039;28;19931;-45
2022/03/11 01:05:58;;;;;;;;;;;21.60;39.10;;;;;;5058151;28;20431;-45
2022/03/11 01:08:25;;;;;;;;;;;21.60;39.10;;;;;;5076418;28;19970;-47
2022/03/11 01:10:52;;;;;;;;;;;21.60;39.10;;;;;;5076997;28;19951;-46
2022/03/11 01:13:19;;;;;;;;;;;21.60;39.20;;;;;;5076665;28;20288;-44
2022/03/11 01:15:45;;;;;;;;;;;21.60;39.10;;;;;;5076916;28;19968;-46
2022/03/11 01:18:13;;;;;;;;;;;21.60;39.20;;;;;;5075815;28;20351;-50
2022/03/11 01:20:40;;;;;;;;;;;21.60;39.20;;;;;;5075321;28;20394;-43
2022/03/11 01:23:07;;;;;;;;;;;21.60;39.20;;;;;;5076417;28;19967;-51
2022/03/11 01:25:34;;;;;;;;;;;21.60;39.20;;;;;;5076141;28;19925;-51
2022/03/11 01:28:01;;;;;;;;;;;21.60;39.20;;;;;;5076345;28;19986;-52
2022/03/11 01:30:28;;;;;;;;;;;21.60;39.20;;;;;;5076422;28;19972;-46
2022/03/11 01:32:55;;;;;;;;;;;21.60;39.20;;;;;;5075269;28;19924;-48
2022/03/11 01:35:22;;;;;;;;;;;21.60;39.20;;;;;;5075755;28;19932;-47
2022/03/11 01:37:49;;;;;;;;;;;21.60;39.20;;;;;;5076189;28;19986;-49
2022/03/11 01:40:16;;;;;;;;;;;21.60;39.20;;;;;;5075904;28;19974;-45
2022/03/11 01:42:43;;;;;;;;;;;21.60;39.20;;;;;;5076149;28;20357;-47
2022/03/11 01:45:10;;;;;;;;;;;21.60;39.20;;;;;;5075812;28;19928;-45
2022/03/11 01:47:37;;;;;;;;;;;21.60;39.20;;;;;;5075013;28;20388;-48
2022/03/11 01:50:05;;;;;;;;;;;21.50;39.10;;;;;;5074950;28;20430;-47
2022/03/11 01:52:32;;;;;;;;;;;21.50;39.70;;;;;;5075506;28;19954;-44
2022/03/11 01:54:59;;;;;;;;;;;21.50;39.10;;;;;;5076192;28;19931;-50
2022/03/11 01:57:26;;;;;;;;;;;21.50;39.10;;;;;;5075469;28;19955;-49
2022/03/11 01:59:53;;;;;;;;;;;21.50;39.70;;;;;;5075784;28;20029;-45
2022/03/11 02:02:20;;;;;;;;;;;21.50;39.10;;;;;;5075018;28;19998;-42
2022/03/11 02:04:47;;;;;;;;;;;21.50;39.10;;;;;;5076001;28;20265;-43
2022/03/11 02:07:14;;;;;;;;;;;21.50;39.10;;;;;;5074651;28;20114;-46
2022/03/11 02:09:41;;;;;;;;;;;21.50;39.10;;;;;;5075331;28;19924;-48
2022/03/11 02:12:08;;;;;;;;;;;21.50;39.10;;;;;;5075632;28;20050;-44
2022/03/11 02:14:35;;;;;;;;;;;21.50;39.10;;;;;;5075248;28;19970;-44
2022/03/11 02:17:02;;;;;;;;;;;21.50;39.10;;;;;;5075188;28;19931;-45
2022/03/11 02:19:29;;;;;;;;;;;21.50;39.10;;;;;;5074512;28;19966;-46
2022/03/11 02:21:58;;;;;;;;;;;21.50;39.10;;;;;;5074196;28;19953;-42
2022/03/11 02:24:27;;;;;;;;;;;21.50;39.10;;;;;;5075009;28;19924;-46
2022/03/11 02:26:55;;;;;;;;;;;21.50;39.10;;;;;;5075628;28;19925;-47
2022/03/11 02:29:22;;;;;;;;;;;21.50;39.10;;;;;;5075167;28;19925;-43
2022/03/11 02:31:49;;;;;;;;;;;21.50;39.10;;;;;;5057535;28;20315;-45
2022/03/11 02:34:16;;;;;;;;;;;21.50;39.10;;;;;;5074268;28;19925;-47
2022/03/11 02:36:43;;;;;;;;;;;21.50;39.10;;;;;;5073541;28;19968;-42
2022/03/11 02:39:10;;;;;;;;;;;21.50;39.10;;;;;;5074654;28;19983;-43
2022/03/11 02:41:41;;;;;;;;;;;21.50;39.10;;;;;;5074927;28;19966;-49
2022/03/11 02:44:08;;;;;;;;;;;21.50;39.10;;;;;;5075260;28;19928;-43
2022/03/11 02:46:34;;;;;;;;;;;21.50;39.10;;;;;;5074951;28;20371;-43
2022/03/11 02:49:02;;;;;;;;;;;21.40;39.00;;;;;;5073799;28;19925;-45
2022/03/11 02:51:29;;;;;;;;;;;21.50;39.00;;;;;;5073762;28;19955;-43
2022/03/11 02:53:56;;;;;;;;;;;21.50;39.00;;;;;;5074798;28;19970;-43
2022/03/11 02:56:23;;;;;;;;;;;21.50;39.10;;;;;;5074343;28;19954;-45
2022/03/11 02:58:50;;;;;;;;;;;21.50;39.00;;;;;;5074482;28;19928;-43
2022/03/11 03:01:17;;;;;;;;;;;21.40;39.00;;;;;;5074327;28;19978;-45
2022/03/11 03:03:44;;;;;;;;;;;21.40;39.00;;;;;;5073579;28;20015;-44
2022/03/11 03:06:11;;;;;;;;;;;21.40;39.00;;;;;;5056769;28;19928;-44
2022/03/11 03:08:38;;;;;;;;;;;21.40;39.00;;;;;;5056504;28;19924;-46
2022/03/11 03:11:05;;;;;;;;;;;21.40;39.00;;;;;;5074135;28;19971;-43
2022/03/11 03:13:32;;;;;;;;;;;21.40;39.00;;;;;;5075265;28;20253;-41
2022/03/11 03:15:59;;;;;;;;;;;21.40;39.00;;;;;;5074353;28;19932;-43
2022/03/11 03:18:26;;;;;;;;;;;21.40;39.00;;;;;;5073524;28;19932;-42
2022/03/11 03:20:53;;;;;;;;;;;21.40;39.00;;;;;;5073757;28;19924;-44
2022/03/11 03:23:20;;;;;;;;;;;21.40;39.00;;;;;;5073977;28;19971;-44
2022/03/11 03:25:47;;;;;;;;;;;21.40;39.00;;;;;;5074236;28;19994;-42
2022/03/11 03:28:14;;;;;;;;;;;21.40;39.00;;;;;;5074208;28;20334;-42
2022/03/11 03:30:41;;;;;;;;;;;21.40;39.00;;;;;;5073880;28;19978;-42
2022/03/11 03:33:08;;;;;;;;;;;21.40;39.00;;;;;;5073544;28;20032;-44
2022/03/11 03:35:35;;;;;;;;;;;21.40;39.00;;;;;;5073637;28;19970;-47
2022/03/11 03:38:05;;;;;;;;;;;21.40;39.00;;;;;;5073025;28;19932;-42
2022/03/11 03:40:32;;;;;;;;;;;21.40;39.00;;;;;;5074040;28;19947;-48
2022/03/11 03:42:59;;;;;;;;;;;21.40;39.00;;;;;;5073705;28;19972;-43
2022/03/11 03:45:26;;;;;;;;;;;21.40;39.00;;;;;;5074000;28;19983;-43
2022/03/11 03:47:53;;;;;;;;;;;21.40;39.00;;;;;;5073340;28;19970;-44
2022/03/11 03:50:20;;;;;;;;;;;21.40;39.00;;;;;;5072670;28;19928;-43
2022/03/11 03:52:47;;;;;;;;;;;21.40;39.00;;;;;;5072853;28;19924;-43
2022/03/11 03:55:14;;;;;;;;;;;21.40;39.00;;;;;;5073563;28;19924;-45
2022/03/11 03:57:41;;;;;;;;;;;21.40;39.00;;;;;;5073779;28;20007;-42
2022/03/11 04:00:08;;;;;;;;;;;21.40;39.00;;;;;;5073809;28;20001;-44
2022/03/11 04:02:37;;;;;;;;;;;21.40;39.00;;;;;;5074420;28;19970;-44
2022/03/11 04:05:04;;;;;;;;;;;21.40;39.00;;;;;;5072756;28;20015;-47
2022/03/11 04:07:31;;;;;;;;;;;21.30;38.90;;;;;;5072609;28;19928;-42
2022/03/11 04:09:59;;;;;;;;;;;21.30;38.90;;;;;;5074356;28;19978;-45
2022/03/11 04:12:25;;;;;;;;;;;21.30;39.50;;;;;;5074597;28;19925;-41
2022/03/11 04:14:52;;;;;;;;;;;21.30;38.90;;;;;;5073684;28;19924;-43
2022/03/11 04:17:19;;;;;;;;;;;21.30;38.90;;;;;;5073703;28;19924;-45
2022/03/11 04:19:47;;;;;;;;;;;21.30;38.90;;;;;;5072707;28;20023;-42
2022/03/11 04:22:14;;;;;;;;;;;21.30;38.80;;;;;;5072751;28;19924;-42
2022/03/11 04:24:41;;;;;;;;;;;21.40;39.00;;;;;;5073344;28;19967;-44
2022/03/11 04:27:09;;;;;;;;;;;21.30;38.80;;;;;;5073499;28;19925;-44
2022/03/11 04:29:37;;;;;;;;;;;21.30;38.80;;;;;;5073283;28;20433;-43
2022/03/11 04:32:05;;;;;;;;;;;21.40;38.90;;;;;;5073257;28;19924;-43
2022/03/11 04:34:32;;;;;;;;;;;21.30;38.80;;;;;;5072481;28;20011;-46
2022/03/11 04:36:59;;;;;;;;;;;21.30;38.80;;;;;;5072796;28;19963;-49
2022/03/11 04:39:26;;;;;;;;;;;21.30;38.80;;;;;;5073442;28;20346;-50
2022/03/11 04:41:53;;;;;;;;;;;21.30;38.80;;;;;;5073190;28;20295;-47
2022/03/11 04:44:21;;;;;;;;;;;21.30;38.80;;;;;;5073136;28;20465;-49
2022/03/11 04:46:48;;;;;;;;;;;21.30;38.80;;;;;;5073403;28;19924;-46
2022/03/11 04:49:15;;;;;;;;;;;21.30;38.80;;;;;;5072879;28;19929;-47
2022/03/11 04:51:42;;;;;;;;;;;21.30;38.80;;;;;;5073215;28;19925;-50
2022/03/11 04:54:09;;;;;;;;;;;21.30;38.80;;;;;;5072181;28;20411;-52
2022/03/11 04:56:37;;;;;;;;;;;21.30;38.80;;;;;;5073044;28;20339;-49
2022/03/11 04:59:04;;;;;;;;;;;21.30;38.80;;;;;;5073121;28;19993;-49
2022/03/11 05:01:31;;;;;;;;;;;21.30;38.80;;;;;;5077043;28;19928;-44
2022/03/11 05:03:58;;;;;;;;;;;21.30;38.80;;;;;;5076924;28;19972;-45
2022/03/11 05:06:25;;;;;;;;;;;21.30;38.80;;;;;;5075807;28;19971;-45
2022/03/11 05:08:52;;;;;;;;;;;21.30;38.80;;;;;;5076041;28;19954;-47
2022/03/11 05:11:19;;;;;;;;;;;21.30;38.80;;;;;;5076493;28;20368;-47
2022/03/11 05:13:46;;;;;;;;;;;21.30;38.80;;;;;;5076432;28;19925;-47
2022/03/11 05:16:13;;;;;;;;;;;21.30;38.80;;;;;;5076634;28;19925;-45
2022/03/11 05:18:47;;;;;;;;;;;21.30;38.80;;;;;;5076324;28;19975;-46
2022/03/11 05:21:14;;;;;;;;;;;21.30;38.80;;;;;;5057665;28;19947;-45
2022/03/11 05:23:41;;;;;;;;;;;21.30;38.80;;;;;;5075515;28;19932;-46
2022/03/11 05:26:24;;;;;;;;;;;21.30;38.80;;;;;;5076504;28;20288;-43
2022/03/11 05:28:52;;;;;;;;;;;21.30;38.80;;;;;;5076209;28;19928;-42
2022/03/11 05:31:20;;;;;;;;;;;21.30;38.80;;;;;;5076077;28;19974;-44
2022/03/11 05:33:48;;;;;;;;;;;21.30;38.80;;;;;;5076387;28;19932;-44
2022/03/11 05:36:15;;;;;;;;;;;21.30;38.80;;;;;;5075212;28;20372;-47
2022/03/11 05:38:42;;;;;;;;;;;21.30;38.70;;;;;;5065248;28;19932;-46
2022/03/11 05:41:12;;;;;;;;;;;21.30;38.70;;;;;;5056439;28;19982;-44
2022/03/11 05:43:39;;;;;;;;;;;21.30;38.70;;;;;;5056044;28;20331;-47
2022/03/11 05:46:06;;;;;;;;;;;21.30;38.70;;;;;;5056128;28;19925;-46
2022/03/11 05:48:33;;;;;;;;;;;21.30;38.70;;;;;;5055764;28;19963;-46
2022/03/11 05:51:05;;;;;;;;;;;21.30;38.70;;;;;;5067428;28;20011;-49
2022/03/11 05:53:32;;;;;;;;;;;21.30;38.70;;;;;;5074918;28;19954;-42
2022/03/11 05:55:59;;;;;;;;;;;21.30;38.70;;;;;;5076721;28;19928;-46
2022/03/11 05:58:26;;;;;;;;;;;21.30;38.70;;;;;;5075486;28;20015;-48
2022/03/11 06:00:53;;;;;;;;;;;21.30;38.70;;;;;;5075492;28;20375;-48
2022/03/11 06:03:20;;;;;;;;;;;21.30;38.60;;;;;;5075482;28;20027;-48
2022/03/11 06:05:48;;;;;;;;;;;21.30;38.60;;;;;;5074959;28;19924;-46
2022/03/11 06:08:15;;;;;;;;;;;21.30;38.60;;;;;;5074628;28;20003;-49
2022/03/11 06:10:43;;;;;;;;;;;21.30;38.60;;;;;;5075336;28;19974;-48
2022/03/11 06:13:10;;;;;;;;;;;21.30;38.60;;;;;;5074799;28;19978;-43
2022/03/11 06:15:37;;;;;;;;;;;21.30;38.60;;;;;;5075505;28;19929;-43
2022/03/11 06:18:04;;;;;;;;;;;21.30;38.60;;;;;;5075156;28;19924;-43
2022/03/11 06:20:32;;;;;;;;;;;21.30;38.50;;;;;;5074027;28;19925;-42
2022/03/11 06:23:00;;;;;;;;;;;21.30;38.50;;;;;;5074391;28;19924;-42
2022/03/11 06:25:27;;;;;;;;;;;21.30;38.50;;;;;;5075256;28;19925;-44
2022/03/11 06:27:54;;;;;;;;;;;21.30;38.50;;;;;;5075239;28;19972;-48
2022/03/11 06:30:21;;;;;;;;;;;21.30;38.40;;;;;;5074917;28;19925;-43
2022/03/11 06:32:48;;;;;;;;;;;21.30;38.50;;;;;;5074913;28;19976;-43
2022/03/11 06:35:16;;;;;;;;;;;21.30;38.40;;;;;;5056754;28;20336;-43
2022/03/11 06:37:44;;;;;;;;;;;21.30;38.40;;;;;;5075112;28;19924;-44
2022/03/11 06:40:11;;;;;;;;;;;21.30;38.40;;;;;;5074251;28;20371;-42
2022/03/11 06:42:40;;;;;;;;;;;21.30;38.40;;;;;;5075528;28;19924;-43
2022/03/11 06:45:08;;;;;;;;;;;21.30;38.40;;;;;;5074658;28;19978;-42
2022/03/11 06:47:35;;;;;;;;;;;21.30;38.30;;;;;;5074894;28;19925;-44
2022/03/11 06:50:03;;;;;;;;;;;21.30;38.30;;;;;;5074415;28;19929;-42
2022/03/11 06:52:30;;;;;;;;;;;21.30;38.30;;;;;;5073531;28;19925;-43
2022/03/11 06:54:57;;;;;;;;;;;21.30;38.30;;;;;;5074234;28;19931;-42
2022/03/11 06:57:24;;;;;;;;;;;21.30;38.20;;;;;;5074507;28;19924;-42
2022/03/11 06:59:51;;;;;;;;;;;21.30;38.20;;;;;;5074169;28;19983;-42
2022/03/11 07:02:18;;;;;;;;;;;21.30;38.20;;;;;;5074637;28;19971;-43
2022/03/11 07:04:52;;;;;;;;;;;21.30;38.10;;;;;;5074305;28;20010;-41
2022/03/11 07:07:19;;;;;;;;;;;21.30;38.10;;;;;;5073569;28;19963;-46
2022/03/11 07:09:46;;;;;;;;;;;21.30;38.10;;;;;;5073371;28;19925;-45
2022/03/11 07:12:13;;;;;;;;;;;21.30;38.10;;;;;;5074414;28;19924;-48
2022/03/11 07:14:41;;;;;;;;;;;21.30;38.10;;;;;;5074100;28;19924;-46
2022/03/11 07:17:08;;;;;;;;;;;21.40;38.10;;;;;;5075209;28;19924;-43
2022/03/11 07:19:36;;;;;;;;;;;21.30;38.10;;;;;;5056339;28;20398;-45
2022/03/11 07:22:04;;;;;;;;;;;21.40;38.10;;;;;;5072762;28;19978;-44
2022/03/11 07:24:31;;;;;;;;;;;21.40;38.10;;;;;;5073464;28;19925;-43
2022/03/11 07:26:58;;;;;;;;;;;21.40;38.10;;;;;;5074588;28;19975;-43
2022/03/11 07:29:25;;;;;;;;;;;21.40;38.10;;;;;;5073880;28;20429;-45
2022/03/11 07:31:52;;;;;;;;;;;21.40;38.00;;;;;;5074102;28;19928;-42
2022/03/11 07:34:20;;;;;;;;;;;21.40;38.00;;;;;;5074148;28;20283;-42
2022/03/11 07:36:47;;;;;;;;;;;21.40;37.90;;;;;;5073065;28;19929;-44
2022/03/11 07:39:14;;;;;;;;;;;21.40;37.90;;;;;;5073231;28;19986;-48
2022/03/11 07:41:41;;;;;;;;;;;21.40;38.00;;;;;;5073730;28;20408;-49
2022/03/11 07:44:08;;;;;;;;;;;21.40;37.90;;;;;;5073724;28;19925;-49
2022/03/11 07:46:43;;;;;;;;;;;21.40;37.90;;;;;;5074028;28;19924;-43
2022/03/11 07:49:11;;;;;;;;;;;21.40;37.90;;;;;;5073947;28;19928;-42
2022/03/11 07:51:38;;;;;;;;;;;21.40;37.90;;;;;;5072639;28;19960;-49
2022/03/11 07:54:05;;;;;;;;;;;21.40;37.80;;;;;;5073000;28;19924;-48
2022/03/11 07:56:32;;;;;;;;;;;21.50;37.90;;;;;;5073909;28;20347;-51
2022/03/11 07:58:59;;;;;;;;;;;21.40;37.80;;;;;;5073419;28;20446;-46
2022/03/11 08:01:26;;;;;;;;;;;21.50;37.80;;;;;;5073765;28;19924;-47
2022/03/11 08:03:54;;;;;;;;;;;21.50;37.80;;;;;;5073560;28;20409;-45
2022/03/11 08:06:21;;;;;;;;;;;21.40;37.70;;;;;;5072701;28;20303;-50
2022/03/11 08:08:48;;;;;;;;;;;21.50;37.80;;;;;;5074335;28;19971;-48
2022/03/11 08:11:15;;;;;;;;;;;21.50;37.70;;;;;;5073000;28;19925;-51
2022/03/11 08:13:42;;;;;;;;;;;21.50;37.70;;;;;;5073450;28;19928;-50
2022/03/11 08:16:12;;;;;;;;;;;21.50;37.70;;;;;;5074242;28;19929;-45
2022/03/11 08:18:39;;;;;;;;;;;21.50;37.60;;;;;;5073633;28;19924;-45
2022/03/11 08:21:08;;;;;;;;;;;21.50;37.60;;;;;;5073362;28;19924;-44
2022/03/11 08:23:34;;;;;;;;;;;21.50;37.50;;;;;;5054240;28;19925;-49
2022/03/11 08:26:01;;;;;;;;;;;21.50;37.50;;;;;;5066916;28;20015;-49
2022/03/11 08:28:28;;;;;;;;;;;21.50;37.50;;;;;;5073430;28;20016;-48
2022/03/11 08:30:55;;;;;;;;;;;21.50;37.50;;;;;;5073271;28;19924;-48
2022/03/11 08:33:24;;;;;;;;;;;21.50;37.40;;;;;;5073206;28;19928;-47
2022/03/11 08:36:11;;;;;;;;;;;21.50;37.30;;;;;;5077253;28;20313;-43
2022/03/11 08:38:39;;;;;;;;;;;21.50;37.30;;;;;;5076337;28;20055;-45
2022/03/11 08:41:08;;;;;;;;;;;21.50;37.20;;;;;;5076209;28;19924;-44
2022/03/11 08:43:38;;;;;;;;;;;21.50;37.20;;;;;;5077864;28;20015;-48
2022/03/11 08:46:07;;;;;;;;;;;21.60;37.20;;;;;;5076972;28;20364;-50
2022/03/11 08:48:35;;;;;;;;;;;21.60;37.20;;;;;;5077180;28;19925;-46
2022/03/11 08:51:03;;;;;;;;;;;21.60;37.10;;;;;;5076953;28;19929;-46
2022/03/11 08:53:30;;;;;;;;;;;21.60;37.10;;;;;;5076028;28;20391;-45
2022/03/11 08:55:57;;;;;;;;;;;21.60;37.10;;;;;;5075929;28;19932;-50
2022/03/11 08:58:24;;;;;;;;;;;21.60;37.00;;;;;;5076589;28;19924;-44
2022/03/11 09:00:51;;;;;;;;;;;21.60;36.90;;;;;;5076927;28;19928;-44
2022/03/11 09:03:18;;;;;;;;;;;21.60;36.90;;;;;;5077813;28;19974;-43
2022/03/11 09:05:45;;;;;;;;;;;21.60;36.90;;;;;;5076560;28;19931;-45
2022/03/11 09:08:13;;;;;;;;;;;21.60;36.80;;;;;;5076212;28;19959;-44
2022/03/11 09:10:40;;;;;;;;;;;21.60;36.80;;;;;;5076043;28;20326;-44
2022/03/11 09:13:06;;;;;;;;;;;21.60;36.70;;;;;;5076742;28;20356;-44
2022/03/11 09:15:33;;;;;;;;;;;21.60;36.70;;;;;;5058668;28;19924;-46
2022/03/11 09:18:01;;;;;;;;;;;21.60;36.70;;;;;;5076321;28;20388;-45
2022/03/11 09:20:29;;;;;;;;;;;21.60;36.70;;;;;;5076098;28;20380;-45
2022/03/11 09:23:02;;;;;;;;;;;21.60;36.60;;;;;;5066406;28;19925;-44
2022/03/11 09:25:29;;;;;;;;;;;21.60;36.50;;;;;;5059410;28;19925;-45
2022/03/11 09:28:02;;;;;;;;;;;21.60;36.50;;;;;;5076201;28;19935;-43
2022/03/11 09:30:29;;;;;;;;;;;21.60;36.50;;;;;;5076101;28;19928;-44
2022/03/11 09:32:57;;;;;;;;;;;21.60;36.40;;;;;;5076080;28;19924;-46
2022/03/11 09:35:24;;;;;;;;;;;21.70;36.40;;;;;;5076326;28;19924;-43
2022/03/11 09:37:51;;;;;;;;;;;21.70;36.40;;;;;;5075153;28;19970;-47
2022/03/11 09:40:18;;;;;;;;;;;21.70;36.40;;;;;;5075166;28;20378;-44
2022/03/11 09:42:46;;;;;;;;;;;21.70;36.30;;;;;;5058779;28;19966;-46
2022/03/11 09:45:13;;;;;;;;;;;21.70;36.90;;;;;;5075875;28;19982;-43
2022/03/11 09:47:42;;;;;;;;;;;21.70;36.30;;;;;;5074876;28;19925;-43
2022/03/11 09:50:09;;;;;;;;;;;21.70;36.20;;;;;;5076050;28;19924;-42
2022/03/11 09:52:36;;;;;;;;;;;21.70;36.20;;;;;;5075014;28;19935;-43
2022/03/11 09:55:07;;;;;;;;;;;21.70;36.20;;;;;;5076564;28;19967;-45
2022/03/11 09:57:34;;;;;;;;;;;21.70;36.20;;;;;;5074945;28;19952;-45
2022/03/11 10:00:03;;;;;;;;;;;21.70;36.10;;;;;;5075549;28;19924;-43
2022/03/11 10:02:30;;;;;;;;;;;21.70;36.10;;;;;;5075895;28;19964;-42
2022/03/11 10:04:57;;;;;;;;;;;21.70;36.10;;;;;;5075539;28;20007;-43
2022/03/11 10:07:44;;;;;;;;;;;21.70;36.10;;;;;;5074797;28;19928;-44
2022/03/11 10:10:14;;;;;;;;;;;21.80;36.20;;;;;;5075708;28;19960;-46
2022/03/11 10:13:03;;;;;;;;;;;21.70;36.00;;;;;;5075088;28;20451;-44
2022/03/11 10:15:30;;;;;;;;;;;21.80;36.00;;;;;;5075267;28;20410;-46
2022/03/11 10:17:57;;;;;;;;;;;21.80;36.00;;;;;;5075505;28;19925;-45
2022/03/11 10:20:25;;;;;;;;;;;21.80;36.00;;;;;;5075219;28;19925;-45
2022/03/11 10:22:52;;;;;;;;;;;21.80;36.00;;;;;;5074707;28;19928;-45
2022/03/11 10:25:20;;;;;;;;;;;21.80;36.10;;;;;;5075422;28;19925;-48
2022/03/11 10:27:58;;;;;;;;;;;21.80;36.00;;;;;;5074523;28;19924;-43
2022/03/11 10:30:28;;;;;;;;;;;21.80;36.00;;;;;;5075289;28;19924;-45
2022/03/11 10:32:57;;;;;;;;;;;21.80;36.00;;;;;;5076360;28;19974;-43
2022/03/11 10:35:30;;;;;;;;;;;21.80;36.00;;;;;;5074857;28;19928;-46
2022/03/11 10:37:59;;;;;;;;;;;21.80;35.90;;;;;;5056465;28;19951;-43
2022/03/11 10:40:31;;;;;;;;;;;21.80;35.40;;;;;;5074998;28;19994;-45
2022/03/11 10:43:12;;;;;;;;;;;21.80;35.90;;;;;;5057264;28;19925;-44
2022/03/11 10:45:46;;;;;;;;;;;21.80;35.90;;;;;;5055028;28;19932;-46
2022/03/11 10:48:14;;;;;;;;;;;21.80;35.90;;;;;;5055013;28;19974;-44
2022/03/11 10:50:41;;;;;;;;;;;21.80;35.80;;;;;;5054774;28;20003;-46
2022/03/11 10:53:09;;;;;;;;;;;21.80;35.80;;;;;;5057181;28;20061;-44
2022/03/11 10:55:39;;;;;;;;;;;21.80;35.80;;;;;;5074815;28;19982;-45
2022/03/11 10:58:07;;;;;;;;;;;21.80;35.80;;;;;;5073728;28;19975;-47
2022/03/11 11:00:39;;;;;;;;;;;21.80;35.80;;;;;;5074232;28;19925;-47
2022/03/11 11:03:08;;;;;;;;;;;21.80;35.80;;;;;;5075187;28;19955;-51
2022/03/11 11:05:36;;;;;;;;;;;21.80;35.80;;;;;;5074607;28;19931;-53
2022/03/11 11:08:03;;;;;;;;;;;21.80;35.80;;;;;;5072851;28;19928;-50
2022/03/11 11:10:32;;;;;;;;;;;21.80;35.70;;;;;;5054170;28;19964;-53
2022/03/11 11:12:59;;;;;;;;;;;21.90;35.80;;;;;;5068418;28;20019;-54
2022/03/11 11:15:26;;;;;;;;;;;21.90;35.80;;;;;;5074139;28;19982;-51
2022/03/11 11:17:53;;;;;;;;;;;21.90;35.80;;;;;;5073695;28;19968;-53
2022/03/11 11:20:33;;;;;;;;;;;21.90;35.80;;;;;;5073609;28;19978;-48
2022/03/11 11:23:04;;;;;;;;;;;21.90;35.70;;;;;;5056224;28;19974;-51
2022/03/11 11:25:32;;;;;;;;;;;21.90;35.70;;;;;;5073949;28;19924;-48
2022/03/11 11:28:06;;;;;;;;;;;21.90;35.70;;;;;;5055751;28;19924;-52
2022/03/11 11:30:33;;;;;;;;;;;21.90;35.70;;;;;;5073985;28;19979;-52
2022/03/11 11:33:00;;;;;;;;;;;21.90;35.80;;;;;;5074243;28;19924;-48
2022/03/11 11:35:29;;;;;;;;;;;21.90;35.80;;;;;;5073908;28;19925;-50
2022/03/11 11:37:57;;;;;;;;;;;21.90;35.70;;;;;;5074129;28;19924;-50
2022/03/11 11:40:31;;;;;;;;;;;21.90;35.70;;;;;;5072754;28;19929;-48
2022/03/11 11:43:26;;;;;;;;;;;21.90;35.70;;;;;;5072806;28;19924;-49
2022/03/11 11:45:53;;;;;;;;;;;21.90;35.70;;;;;;5074033;28;19929;-46
2022/03/11 11:48:41;;;;;;;;;;;21.90;35.70;;;;;;5073858;28;20299;-49
2022/03/11 11:51:28;;;;;;;;;;;21.90;35.60;;;;;;5073254;28;19976;-52
2022/03/11 11:53:56;;;;;;;;;;;21.90;35.70;;;;;;5062292;28;19947;-47
2022/03/11 11:56:26;;;;;;;;;;;21.90;35.70;;;;;;5073466;28;19951;-50
2022/03/11 11:58:56;;;;;;;;;;;21.90;35.60;;;;;;5073101;28;19971;-45
2022/03/11 12:01:38;;;;;;;;;;;21.90;35.60;;;;;;5073327;28;19929;-49
2022/03/11 12:04:20;;;;;;;;;;;21.90;35.60;;;;;;5073487;28;19924;-46
2022/03/11 12:06:58;;;;;;;;;;;21.90;35.60;;;;;;5073534;28;20392;-50
2022/03/11 12:09:40;;;;;;;;;;;21.90;35.50;;;;;;5072925;28;19925;-46
2022/03/11 12:12:25;;;;;;;;;;;22.00;35.60;;;;;;5076994;28;19924;-44
2022/03/11 12:14:59;;;;;;;;;;;21.90;35.50;;;;;;5078005;28;19928;-48
2022/03/11 12:17:38;;;;;;;;;;;22.00;35.60;;;;;;5077338;28;19974;-45
2022/03/11 12:20:24;;;;;;;;;;;22.00;35.60;;;;;;5077496;28;19924;-45
2022/03/11 12:22:54;;;;;;;;;;;22.00;35.60;;;;;;5077275;28;20017;-46
2022/03/11 12:25:22;;;;;;;;;;;22.00;35.50;;;;;;5077200;28;19974;-44
2022/03/11 12:27:58;;;;;;;;;;;22.00;35.60;;;;;;5076277;28;20446;-46
2022/03/11 12:30:32;;;;;;;;;;;22.00;35.50;;;;;;5077622;28;19978;-47
2022/03/11 12:33:00;;;;;;;;;;;22.00;35.60;;;;;;5077154;28;19924;-45
2022/03/11 12:35:27;;;;;;;;;;;21.90;35.40;;;;;;5077245;28;19978;-44
2022/03/11 12:37:54;;;;;;;;;;;21.90;35.50;;;;;;5077333;28;19924;-46
2022/03/11 12:40:22;;;;;;;;;;;22.00;35.50;;;;;;5075726;28;19983;-45
2022/03/11 12:42:49;;;;;;;;;;;22.00;35.50;;;;;;5076119;28;19924;-45
2022/03/11 12:45:29;;;;;;;;;;;22.00;35.50;;;;;;5059335;28;20400;-46
2022/03/11 12:47:56;;;;;;;;;;;22.00;35.50;;;;;;5076733;28;19970;-47
2022/03/11 12:50:23;;;;;;;;;;;22.00;35.60;;;;;;5076614;28;19928;-45
2022/03/11 12:52:50;;;;;;;;;;;22.00;35.50;;;;;;5076950;28;19956;-45
2022/03/11 12:55:32;;;;;;;;;;;22.00;35.50;;;;;;5075774;28;20406;-46
2022/03/11 12:58:04;;;;;;;;;;;22.00;35.50;;;;;;5075867;28;19928;-44
2022/03/11 13:00:33;;;;;;;;;;;22.00;35.50;;;;;;5076480;28;20392;-46
2022/03/11 13:03:02;;;;;;;;;;;22.00;35.50;;;;;;5076537;28;20379;-46
2022/03/11 13:05:32;;;;;;;;;;;22.00;35.50;;;;;;5076681;28;19924;-45
2022/03/11 13:08:01;;;;;;;;;;;22.00;35.50;;;;;;5076769;28;20335;-46
2022/03/11 13:10:28;;;;;;;;;;;22.00;35.50;;;;;;5075297;28;19925;-46
2022/03/11 13:12:56;;;;;;;;;;;22.00;35.50;;;;;;5075472;28;19981;-45
2022/03/11 13:15:26;;;;;;;;;;;22.00;35.50;;;;;;5076448;28;19928;-47
2022/03/11 13:17:58;;;;;;;;;;;22.00;35.60;;;;;;5075825;28;20396;-44
2022/03/11 13:20:41;;;;;;;;;;;22.00;35.50;;;;;;5075684;28;19924;-46
2022/03/11 13:23:11;;;;;;;;;;;22.00;35.50;;;;;;5076273;28;19928;-46
2022/03/11 13:25:39;;;;;;;;;;;22.00;35.50;;;;;;5075798;28;20273;-47
2022/03/11 13:28:07;;;;;;;;;;;22.00;35.50;;;;;;5074896;28;20058;-46
2022/03/11 13:30:35;;;;;;;;;;;22.00;35.50;;;;;;5076291;28;19978;-44
2022/03/11 13:33:16;;;;;;;;;;;22.00;35.50;;;;;;5076065;28;19925;-45
2022/03/11 13:35:44;;;;;;;;;;;22.00;35.50;;;;;;5075446;28;19928;-45
2022/03/11 13:38:30;;;;;;;;;;;22.00;35.40;;;;;;5076042;28;19925;-45
2022/03/11 13:40:57;;;;;;;;;;;22.00;35.50;;;;;;5075132;28;19925;-44
2022/03/11 13:43:24;;;;;;;;;;;22.00;35.40;;;;;;5075541;28;19925;-44
2022/03/11 13:45:54;;;;;;;;;;;22.00;35.40;;;;;;5075672;28;19970;-45
2022/03/11 13:48:32;;;;;;;;;;;22.00;35.50;;;;;;5075806;28;19931;-45
2022/03/11 13:51:00;;;;;;;;;;;22.00;35.50;;;;;;5075957;28;19928;-45
2022/03/11 13:53:28;;;;;;;;;;;22.00;35.50;;;;;;5075783;28;20346;-45
2022/03/11 13:55:57;;;;;;;;;;;22.00;35.50;;;;;;5074968;28;20418;-42
2022/03/11 13:58:25;;;;;;;;;;;22.00;35.50;;;;;;5075139;28;19929;-45
2022/03/11 14:00:53;;;;;;;;;;;22.00;35.50;;;;;;5075787;28;19967;-43
2022/03/11 14:03:22;;;;;;;;;;;22.00;35.50;;;;;;5075630;28;19928;-46
2022/03/11 14:05:50;;;;;;;;;;;22.00;35.50;;;;;;5075531;28;20342;-46
2022/03/11 14:08:21;;;;;;;;;;;22.00;35.50;;;;;;5075464;28;19978;-43
2022/03/11 14:10:48;;;;;;;;;;;22.00;35.50;;;;;;5074340;28;19928;-47
2022/03/11 14:13:16;;;;;;;;;;;22.00;35.50;;;;;;5075016;28;19974;-44
2022/03/11 14:15:44;;;;;;;;;;;22.00;35.50;;;;;;5075491;28;20007;-44
2022/03/11 14:18:13;;;;;;;;;;;22.00;35.50;;;;;;5075621;28;19925;-51
2022/03/11 14:20:59;;;;;;;;;;;22.00;35.50;;;;;;5075471;28;20037;-52
2022/03/11 14:23:26;;;;;;;;;;;22.00;35.50;;;;;;5075473;28;19931;-51
2022/03/11 14:25:53;;;;;;;;;;;22.00;35.50;;;;;;5074335;28;19959;-53